createdAt,value
2022-11-28T00:00:08.102Z,88.30
2022-11-28T00:00:17.503Z,88.50
2022-11-28T00:00:26.915Z,88.60
2022-11-28T00:00:36.347Z,88.80
2022-11-28T00:00:45.757Z,88.90
2022-11-28T00:00:55.189Z,89.10
2022-11-28T00:01:04.614Z,89.30
2022-11-28T00:01:14.050Z,89.50
2022-11-28T00:01:23.448Z,89.80
2022-11-28T00:01:32.840Z,90.00
2022-11-28T00:01:42.244Z,90.10
2022-11-28T00:02:01.126Z,90.30
2022-11-28T00:02:10.601Z,90.40
2022-11-28T00:02:20.100Z,90.50
2022-11-28T00:02:29.426Z,90.60
2022-11-28T00:02:38.814Z,90.70
2022-11-28T00:02:48.240Z,90.90
2022-11-28T00:02:57.776Z,91.00
2022-11-28T00:03:07.134Z,91.10
2022-11-28T00:03:16.537Z,91.20
2022-11-28T00:03:25.913Z,91.40
2022-11-28T00:03:35.309Z,91.50
2022-11-28T00:03:44.698Z,91.60
2022-11-28T00:03:54.101Z,91.70
2022-11-28T00:04:03.518Z,91.90
2022-11-28T00:04:12.918Z,92.00
2022-11-28T00:04:22.322Z,92.10
2022-11-28T00:04:41.472Z,92.40
2022-11-28T00:04:50.648Z,92.50
2022-11-28T00:05:00.053Z,92.70
2022-11-28T00:05:09.497Z,92.80
2022-11-28T00:05:18.944Z,92.90
2022-11-28T00:05:28.366Z,93.10
2022-11-28T00:05:39.945Z,93.20
2022-11-28T00:05:47.236Z,93.30
2022-11-28T00:05:56.626Z,93.50
2022-11-28T00:06:06.068Z,93.60
2022-11-28T00:06:15.487Z,93.70
2022-11-28T00:06:24.884Z,93.90
2022-11-28T00:06:34.316Z,94.00
2022-11-28T00:06:43.757Z,94.10
2022-11-28T00:06:53.147Z,94.30
2022-11-28T00:07:02.567Z,94.40
2022-11-28T00:07:12.092Z,94.50
2022-11-28T00:07:30.910Z,94.70
2022-11-28T00:07:40.392Z,94.80
2022-11-28T00:07:49.830Z,94.90
2022-11-28T00:07:59.213Z,95.00
2022-11-28T00:08:08.590Z,95.10
2022-11-28T00:08:18.127Z,95.20
2022-11-28T00:08:27.412Z,95.30
2022-11-28T00:08:36.838Z,95.40
2022-11-28T00:08:46.271Z,95.60
2022-11-28T00:08:55.680Z,95.70
2022-11-28T00:09:05.098Z,95.80
2022-11-28T00:09:14.519Z,95.90
2022-11-28T00:09:23.951Z,96.10
2022-11-28T00:09:33.372Z,96.20
2022-11-28T00:09:42.796Z,96.40
2022-11-28T00:09:53.341Z,96.50
2022-11-28T00:10:03.649Z,96.60
2022-11-28T00:10:13.137Z,96.70
2022-11-28T00:10:22.597Z,96.80
2022-11-28T00:10:32.011Z,96.90
2022-11-28T00:10:50.964Z,97.20
2022-11-28T00:11:00.381Z,97.30
2022-11-28T00:11:09.807Z,97.40
2022-11-28T00:11:19.285Z,97.40
2022-11-28T00:11:28.682Z,97.50
2022-11-28T00:11:38.082Z,97.60
2022-11-28T00:11:47.518Z,97.60
2022-11-28T00:11:56.939Z,97.70
2022-11-28T00:12:06.428Z,97.70
2022-11-28T00:12:15.851Z,97.10
2022-11-28T00:12:25.270Z,97.80
2022-11-28T00:12:34.679Z,97.80
2022-11-28T00:12:44.131Z,97.80
2022-11-28T00:12:53.571Z,97.90
2022-11-28T00:13:02.976Z,97.90
2022-11-28T00:13:12.371Z,97.90
2022-11-28T00:13:31.215Z,98.00
2022-11-28T00:13:40.621Z,98.10
2022-11-28T00:13:50.050Z,98.20
2022-11-28T00:13:59.477Z,98.20
2022-11-28T00:14:08.915Z,98.40
2022-11-28T00:14:18.373Z,98.50
2022-11-28T00:14:27.776Z,98.60
2022-11-28T00:14:37.183Z,98.70
2022-11-28T00:14:46.628Z,98.80
2022-11-28T00:14:56.103Z,98.80
2022-11-28T00:15:05.523Z,98.80
2022-11-28T00:15:14.948Z,98.90
2022-11-28T00:15:24.358Z,99.00
2022-11-28T00:15:33.846Z,99.00
2022-11-28T00:15:43.263Z,99.00
2022-11-28T00:15:52.639Z,99.10
2022-11-28T00:16:02.112Z,99.20
2022-11-28T00:16:20.843Z,99.50
2022-11-28T00:16:30.321Z,99.50
2022-11-28T00:16:39.640Z,99.60
2022-11-28T00:16:49.058Z,99.60
2022-11-28T00:16:58.468Z,99.60
2022-11-28T00:17:07.895Z,99.70
2022-11-28T00:17:17.281Z,99.70
2022-11-28T00:17:26.706Z,99.70
2022-11-28T00:17:36.118Z,99.70
2022-11-28T00:17:45.543Z,99.80
2022-11-28T00:17:55.332Z,99.80
2022-11-28T00:18:04.791Z,99.80
2022-11-28T00:18:14.287Z,99.80
2022-11-28T00:18:23.696Z,99.80
2022-11-28T00:18:33.379Z,99.80
2022-11-28T00:18:42.785Z,99.90
2022-11-28T00:18:52.211Z,99.80
2022-11-28T00:19:11.018Z,99.90
2022-11-28T00:19:20.430Z,99.90
2022-11-28T00:19:29.853Z,99.90
2022-11-28T00:19:39.251Z,99.90
2022-11-28T00:19:48.687Z,99.90
2022-11-28T00:19:58.124Z,99.90
2022-11-28T00:20:07.535Z,99.90
2022-11-28T00:20:16.927Z,99.90
2022-11-28T00:20:26.344Z,99.90
2022-11-28T00:20:35.765Z,99.90
2022-11-28T00:20:45.155Z,99.90
2022-11-28T00:20:54.548Z,99.90
2022-11-28T00:21:03.929Z,99.90
2022-11-28T00:21:13.364Z,99.90
2022-11-28T00:21:22.772Z,99.80
2022-11-28T00:21:32.191Z,99.70
2022-11-28T00:21:51.006Z,99.30
2022-11-28T00:22:00.431Z,99.20
2022-11-28T00:22:09.879Z,98.90
2022-11-28T00:22:19.274Z,98.70
2022-11-28T00:22:28.685Z,98.50
2022-11-28T00:22:38.108Z,98.60
2022-11-28T00:22:47.517Z,98.60
2022-11-28T00:22:56.975Z,98.40
2022-11-28T00:23:06.372Z,98.10
2022-11-28T00:23:15.800Z,97.90
2022-11-28T00:23:25.336Z,97.70
2022-11-28T00:23:34.636Z,97.50
2022-11-28T00:23:44.043Z,97.30
2022-11-28T00:23:53.463Z,97.30
2022-11-28T00:24:02.883Z,97.10
2022-11-28T00:24:12.308Z,97.10
2022-11-28T00:24:31.151Z,97.00
2022-11-28T00:24:40.890Z,96.90
2022-11-28T00:24:50.021Z,96.90
2022-11-28T00:24:59.434Z,96.90
2022-11-28T00:25:08.840Z,96.80
2022-11-28T00:25:18.223Z,96.70
2022-11-28T00:25:27.635Z,96.60
2022-11-28T00:25:37.062Z,96.60
2022-11-28T00:25:46.560Z,96.60
2022-11-28T00:25:55.947Z,96.50
2022-11-28T00:26:05.354Z,96.40
2022-11-28T00:26:14.780Z,96.40
2022-11-28T00:26:24.279Z,96.30
2022-11-28T00:26:33.700Z,96.30
2022-11-28T00:26:43.148Z,96.30
2022-11-28T00:26:52.546Z,96.30
2022-11-28T00:27:01.986Z,96.30
2022-11-28T00:27:20.888Z,96.30
2022-11-28T00:27:30.276Z,96.40
2022-11-28T00:27:39.678Z,96.50
2022-11-28T00:27:49.088Z,96.50
2022-11-28T00:27:58.502Z,96.60
2022-11-28T00:28:07.910Z,96.60
2022-11-28T00:28:17.316Z,96.70
2022-11-28T00:28:26.766Z,96.80
2022-11-28T00:28:36.260Z,96.80
2022-11-28T00:28:45.717Z,96.90
2022-11-28T00:28:55.152Z,96.90
2022-11-28T00:29:04.557Z,97.00
2022-11-28T00:29:13.961Z,97.00
2022-11-28T00:29:23.353Z,97.10
2022-11-28T00:29:32.766Z,97.10
2022-11-28T00:29:42.146Z,97.20
2022-11-28T00:30:01.001Z,97.40
2022-11-28T00:30:10.403Z,97.50
2022-11-28T00:30:19.804Z,97.50
2022-11-28T00:30:29.225Z,97.50
2022-11-28T00:30:38.643Z,97.60
2022-11-28T00:30:48.055Z,97.60
2022-11-28T00:30:57.548Z,97.50
2022-11-28T00:31:06.977Z,97.60
2022-11-28T00:31:16.439Z,97.60
2022-11-28T00:31:25.894Z,97.70
2022-11-28T00:31:35.235Z,97.70
2022-11-28T00:31:44.705Z,97.80
2022-11-28T00:31:54.209Z,97.90
2022-11-28T00:32:03.675Z,97.90
2022-11-28T00:32:13.176Z,98.00
2022-11-28T00:32:22.480Z,98.10
2022-11-28T00:32:41.345Z,98.30
2022-11-28T00:32:50.742Z,98.30
2022-11-28T00:33:00.181Z,98.30
2022-11-28T00:33:09.611Z,98.50
2022-11-28T00:33:19.009Z,98.60
2022-11-28T00:33:28.409Z,98.60
2022-11-28T00:33:37.864Z,98.70
2022-11-28T00:33:47.266Z,98.80
2022-11-28T00:33:56.658Z,98.80
2022-11-28T00:34:06.073Z,99.00
2022-11-28T00:34:15.487Z,99.00
2022-11-28T00:34:24.885Z,98.90
2022-11-28T00:34:34.325Z,98.90
2022-11-28T00:34:44.073Z,98.90
2022-11-28T00:34:53.128Z,98.80
2022-11-28T00:35:02.556Z,98.70
2022-11-28T00:35:11.968Z,98.60
2022-11-28T00:35:30.801Z,98.60
2022-11-28T00:35:40.198Z,98.60
2022-11-28T00:35:49.614Z,98.50
2022-11-28T00:35:59.049Z,98.40
2022-11-28T00:36:08.470Z,98.30
2022-11-28T00:36:17.867Z,98.20
2022-11-28T00:36:27.270Z,98.20
2022-11-28T00:36:36.929Z,98.10
2022-11-28T00:36:46.387Z,98.00
2022-11-28T00:36:55.808Z,97.90
2022-11-28T00:37:05.216Z,97.80
2022-11-28T00:37:14.618Z,97.70
2022-11-28T00:37:24.022Z,97.70
2022-11-28T00:37:33.442Z,97.50
2022-11-28T00:37:42.872Z,97.40
2022-11-28T00:37:52.279Z,97.10
2022-11-28T00:38:11.190Z,97.00
2022-11-28T00:38:20.598Z,96.90
2022-11-28T00:38:30.131Z,96.70
2022-11-28T00:38:39.459Z,96.50
2022-11-28T00:38:48.844Z,96.50
2022-11-28T00:38:58.250Z,96.40
2022-11-28T00:39:07.641Z,96.20
2022-11-28T00:39:17.056Z,96.10
2022-11-28T00:39:26.472Z,95.80
2022-11-28T00:39:35.876Z,95.50
2022-11-28T00:39:45.276Z,95.30
2022-11-28T00:39:54.690Z,95.20
2022-11-28T00:40:04.096Z,95.00
2022-11-28T00:40:13.480Z,94.90
2022-11-28T00:40:22.896Z,94.80
2022-11-28T00:40:32.279Z,94.70
2022-11-28T00:40:51.092Z,94.60
2022-11-28T00:41:00.481Z,94.50
2022-11-28T00:41:09.917Z,94.30
2022-11-28T00:41:19.338Z,94.10
2022-11-28T00:41:28.783Z,94.10
2022-11-28T00:41:38.140Z,94.00
2022-11-28T00:41:47.582Z,93.80
2022-11-28T00:41:57.014Z,93.70
2022-11-28T00:42:06.476Z,93.60
2022-11-28T00:42:15.939Z,93.50
2022-11-28T00:42:25.314Z,93.50
2022-11-28T00:42:34.736Z,93.30
2022-11-28T00:42:44.132Z,93.10
2022-11-28T00:42:53.557Z,93.00
2022-11-28T00:43:03.014Z,92.20
2022-11-28T00:43:12.415Z,92.90
2022-11-28T00:43:31.274Z,92.70
2022-11-28T00:43:40.685Z,92.70
2022-11-28T00:43:50.108Z,92.70
2022-11-28T00:43:59.506Z,92.70
2022-11-28T00:44:08.933Z,92.70
2022-11-28T00:44:18.344Z,92.70
2022-11-28T00:44:27.751Z,92.70
2022-11-28T00:44:37.175Z,92.80
2022-11-28T00:44:46.578Z,92.80
2022-11-28T00:44:55.963Z,92.70
2022-11-28T00:45:05.420Z,92.80
2022-11-28T00:45:14.897Z,92.80
2022-11-28T00:45:24.378Z,92.80
2022-11-28T00:45:33.829Z,92.80
2022-11-28T00:45:43.218Z,92.80
2022-11-28T00:45:52.676Z,92.80
2022-11-28T00:46:02.092Z,92.90
2022-11-28T00:46:21.116Z,93.10
2022-11-28T00:46:30.366Z,93.10
2022-11-28T00:46:39.787Z,93.20
2022-11-28T00:46:49.177Z,93.20
2022-11-28T00:46:58.576Z,93.30
2022-11-28T00:47:07.997Z,93.40
2022-11-28T00:47:17.436Z,93.50
2022-11-28T00:47:26.841Z,93.50
2022-11-28T00:47:36.258Z,93.60
2022-11-28T00:47:45.679Z,93.70
2022-11-28T00:47:55.133Z,93.80
2022-11-28T00:48:04.587Z,93.90
2022-11-28T00:48:14.027Z,94.00
2022-11-28T00:48:23.449Z,94.10
2022-11-28T00:48:32.904Z,94.20
2022-11-28T00:48:42.309Z,94.30
2022-11-28T00:49:01.150Z,94.40
2022-11-28T00:49:10.592Z,94.50
2022-11-28T00:49:20.024Z,94.60
2022-11-28T00:49:29.425Z,94.70
2022-11-28T00:49:38.837Z,94.80
2022-11-28T00:49:48.239Z,94.80
2022-11-28T00:49:57.651Z,94.90
2022-11-28T00:50:07.062Z,95.10
2022-11-28T00:50:16.491Z,95.20
2022-11-28T00:50:25.923Z,95.40
2022-11-28T00:50:35.336Z,95.50
2022-11-28T00:50:44.782Z,95.50
2022-11-28T00:50:54.250Z,95.60
2022-11-28T00:51:03.665Z,95.70
2022-11-28T00:51:13.077Z,95.70
2022-11-28T00:51:22.494Z,95.90
2022-11-28T00:51:31.931Z,96.00
2022-11-28T00:51:50.831Z,96.20
2022-11-28T00:52:00.259Z,96.30
2022-11-28T00:52:09.733Z,96.40
2022-11-28T00:52:19.164Z,96.50
2022-11-28T00:52:28.598Z,96.60
2022-11-28T00:52:38.034Z,96.70
2022-11-28T00:52:47.447Z,96.80
2022-11-28T00:52:56.886Z,96.80
2022-11-28T00:53:06.346Z,96.90
2022-11-28T00:53:15.767Z,97.00
2022-11-28T00:53:25.172Z,97.10
2022-11-28T00:53:34.701Z,97.20
2022-11-28T00:53:44.034Z,97.40
2022-11-28T00:53:53.430Z,97.50
2022-11-28T00:54:02.874Z,97.70
2022-11-28T00:54:12.283Z,97.80
2022-11-28T00:54:31.135Z,98.00
2022-11-28T00:54:40.924Z,98.00
2022-11-28T00:54:49.960Z,98.10
2022-11-28T00:54:59.466Z,98.20
2022-11-28T00:55:08.866Z,98.20
2022-11-28T00:55:18.297Z,98.30
2022-11-28T00:55:27.717Z,98.30
2022-11-28T00:55:37.139Z,98.40
2022-11-28T00:55:46.565Z,98.50
2022-11-28T00:55:55.955Z,98.60
2022-11-28T00:56:05.356Z,98.70
2022-11-28T00:56:14.800Z,98.70
2022-11-28T00:56:24.219Z,98.80
2022-11-28T00:56:33.622Z,98.80
2022-11-28T00:56:43.053Z,98.70
2022-11-28T00:56:52.499Z,98.80
2022-11-28T00:57:01.938Z,98.90
2022-11-28T00:57:20.799Z,99.00
2022-11-28T00:57:30.213Z,99.00
2022-11-28T00:57:39.641Z,99.10
2022-11-28T00:57:49.051Z,99.10
2022-11-28T00:57:58.453Z,99.20
2022-11-28T00:58:07.899Z,99.40
2022-11-28T00:58:17.328Z,99.60
2022-11-28T00:58:26.756Z,99.70
2022-11-28T00:58:36.189Z,99.70
2022-11-28T00:58:45.616Z,99.80
2022-11-28T00:58:55.031Z,99.80
2022-11-28T00:59:04.460Z,99.90
2022-11-28T00:59:13.885Z,99.90
2022-11-28T00:59:23.340Z,99.90
2022-11-28T00:59:32.752Z,99.90
2022-11-28T00:59:42.175Z,99.90
2022-11-28T01:00:01.031Z,99.90
2022-11-28T01:00:10.508Z,99.90
2022-11-28T01:00:19.923Z,99.90
2022-11-28T01:00:29.336Z,99.90
2022-11-28T01:00:38.892Z,99.90
2022-11-28T01:00:48.335Z,99.90
2022-11-28T01:00:57.652Z,99.90
2022-11-28T01:01:07.042Z,99.90
2022-11-28T01:01:16.480Z,99.90
2022-11-28T01:01:25.923Z,99.90
2022-11-28T01:01:35.283Z,99.90
2022-11-28T01:01:44.729Z,99.90
2022-11-28T01:01:54.159Z,99.90
2022-11-28T01:02:03.572Z,99.90
2022-11-28T01:02:12.969Z,99.90
2022-11-28T01:02:22.456Z,99.90
2022-11-28T01:02:41.299Z,99.90
2022-11-28T01:02:50.666Z,99.90
2022-11-28T01:03:00.013Z,99.90
2022-11-28T01:03:09.478Z,99.90
2022-11-28T01:03:18.965Z,99.90
2022-11-28T01:03:28.479Z,99.90
2022-11-28T01:03:37.900Z,99.90
2022-11-28T01:03:47.323Z,99.90
2022-11-28T01:03:56.731Z,99.90
2022-11-28T01:04:06.210Z,99.90
2022-11-28T01:04:15.618Z,99.90
2022-11-28T01:04:25.034Z,99.90
2022-11-28T01:04:34.428Z,99.90
2022-11-28T01:04:44.206Z,99.90
2022-11-28T01:04:53.277Z,99.90
2022-11-28T01:05:02.734Z,99.90
2022-11-28T01:05:12.201Z,99.90
2022-11-28T01:05:31.051Z,99.90
2022-11-28T01:05:40.478Z,99.90
2022-11-28T01:05:49.906Z,99.90
2022-11-28T01:05:59.338Z,99.90
2022-11-28T01:06:08.807Z,99.90
2022-11-28T01:06:18.238Z,99.90
2022-11-28T01:06:27.713Z,99.90
2022-11-28T01:06:37.143Z,99.90
2022-11-28T01:06:46.570Z,99.90
2022-11-28T01:06:55.990Z,99.90
2022-11-28T01:07:05.391Z,99.90
2022-11-28T01:07:14.831Z,99.90
2022-11-28T01:07:24.271Z,99.90
2022-11-28T01:07:33.716Z,99.90
2022-11-28T01:07:43.084Z,99.90
2022-11-28T01:07:52.471Z,99.90
2022-11-28T01:08:11.322Z,99.90
2022-11-28T01:08:20.753Z,99.90
2022-11-28T01:08:30.166Z,99.90
2022-11-28T01:08:39.701Z,99.90
2022-11-28T01:08:49.003Z,99.90
2022-11-28T01:08:58.467Z,99.90
2022-11-28T01:09:07.882Z,99.90
2022-11-28T01:09:17.296Z,99.90
2022-11-28T01:09:26.719Z,99.90
2022-11-28T01:09:36.160Z,99.90
2022-11-28T01:09:45.621Z,99.90
2022-11-28T01:09:55.057Z,99.90
2022-11-28T01:10:04.495Z,99.90
2022-11-28T01:10:13.893Z,99.90
2022-11-28T01:10:23.324Z,99.90
2022-11-28T01:10:32.749Z,99.90
2022-11-28T01:10:42.184Z,99.90
2022-11-28T01:11:01.062Z,99.90
2022-11-28T01:11:10.478Z,99.90
2022-11-28T01:11:19.925Z,99.90
2022-11-28T01:11:29.327Z,99.90
2022-11-28T01:11:38.721Z,99.90
2022-11-28T01:11:48.138Z,99.90
2022-11-28T01:11:57.537Z,99.90
2022-11-28T01:12:06.949Z,99.90
2022-11-28T01:12:16.371Z,99.90
2022-11-28T01:12:25.794Z,99.90
2022-11-28T01:12:35.220Z,99.90
2022-11-28T01:12:44.670Z,99.90
2022-11-28T01:12:54.077Z,99.90
2022-11-28T01:13:03.508Z,99.90
2022-11-28T01:13:13.065Z,99.90
2022-11-28T01:13:22.505Z,99.90
2022-11-28T01:13:31.920Z,99.90
2022-11-28T01:13:50.778Z,99.90
2022-11-28T01:14:00.190Z,99.90
2022-11-28T01:14:09.620Z,99.90
2022-11-28T01:14:19.073Z,99.90
2022-11-28T01:14:28.483Z,99.90
2022-11-28T01:14:37.882Z,99.90
2022-11-28T01:14:47.293Z,99.90
2022-11-28T01:14:56.765Z,99.90
2022-11-28T01:15:06.170Z,99.90
2022-11-28T01:15:15.591Z,99.90
2022-11-28T01:15:25.012Z,99.90
2022-11-28T01:15:34.445Z,99.90
2022-11-28T01:15:43.869Z,99.90
2022-11-28T01:15:53.351Z,99.90
2022-11-28T01:16:02.822Z,99.90
2022-11-28T01:16:12.195Z,99.90
2022-11-28T01:16:31.087Z,99.90
2022-11-28T01:16:40.501Z,99.90
2022-11-28T01:16:49.966Z,99.90
2022-11-28T01:16:59.269Z,99.90
2022-11-28T01:17:08.713Z,99.90
2022-11-28T01:17:18.184Z,99.90
2022-11-28T01:17:27.623Z,99.90
2022-11-28T01:17:37.029Z,99.90
2022-11-28T01:17:46.437Z,99.90
2022-11-28T01:17:55.833Z,99.90
2022-11-28T01:18:05.232Z,99.90
2022-11-28T01:18:14.860Z,99.90
2022-11-28T01:18:24.280Z,99.90
2022-11-28T01:18:33.708Z,99.90
2022-11-28T01:18:43.122Z,99.90
2022-11-28T01:18:52.549Z,99.90
2022-11-28T01:19:01.982Z,99.90
2022-11-28T01:19:20.856Z,99.90
2022-11-28T01:19:30.282Z,99.90
2022-11-28T01:19:39.718Z,99.90
2022-11-28T01:19:49.114Z,99.90
2022-11-28T01:19:58.524Z,99.90
2022-11-28T01:20:07.944Z,99.90
2022-11-28T01:20:17.449Z,99.90
2022-11-28T01:20:26.871Z,99.90
2022-11-28T01:20:36.288Z,99.90
2022-11-28T01:20:45.714Z,99.90
2022-11-28T01:20:55.146Z,99.90
2022-11-28T01:21:04.544Z,99.90
2022-11-28T01:21:13.963Z,99.90
2022-11-28T01:21:23.371Z,99.90
2022-11-28T01:21:32.801Z,99.90
2022-11-28T01:21:42.228Z,99.90
2022-11-28T01:22:01.043Z,99.90
2022-11-28T01:22:10.464Z,99.90
2022-11-28T01:22:19.882Z,99.90
2022-11-28T01:22:29.299Z,99.90
2022-11-28T01:22:38.735Z,99.90
2022-11-28T01:22:48.141Z,99.90
2022-11-28T01:22:57.555Z,99.90
2022-11-28T01:23:07.002Z,99.90
2022-11-28T01:23:16.466Z,99.90
2022-11-28T01:23:25.867Z,99.90
2022-11-28T01:23:35.276Z,99.90
2022-11-28T01:23:44.830Z,99.90
2022-11-28T01:23:54.121Z,99.90
2022-11-28T01:24:03.536Z,99.90
2022-11-28T01:24:12.927Z,99.90
2022-11-28T01:24:22.399Z,99.90
2022-11-28T01:24:41.575Z,99.90
2022-11-28T01:24:50.778Z,99.90
2022-11-28T01:25:00.199Z,99.90
2022-11-28T01:25:09.593Z,99.90
2022-11-28T01:25:19.008Z,99.90
2022-11-28T01:25:28.442Z,99.90
2022-11-28T01:25:37.912Z,99.90
2022-11-28T01:25:47.401Z,99.90
2022-11-28T01:25:56.810Z,99.90
2022-11-28T01:26:06.229Z,99.90
2022-11-28T01:26:15.639Z,99.90
2022-11-28T01:26:25.057Z,99.90
2022-11-28T01:26:34.484Z,99.90
2022-11-28T01:26:43.891Z,99.90
2022-11-28T01:26:53.284Z,99.90
2022-11-28T01:27:02.712Z,99.90
2022-11-28T01:27:12.128Z,99.90
2022-11-28T01:27:30.932Z,99.90
2022-11-28T01:27:40.353Z,99.90
2022-11-28T01:27:49.730Z,99.90
2022-11-28T01:27:59.156Z,99.90
2022-11-28T01:28:08.558Z,99.90
2022-11-28T01:28:18.013Z,99.90
2022-11-28T01:28:27.423Z,99.90
2022-11-28T01:28:36.858Z,99.90
2022-11-28T01:28:46.266Z,99.90
2022-11-28T01:28:55.655Z,99.90
2022-11-28T01:29:05.108Z,99.90
2022-11-28T01:29:14.612Z,99.90
2022-11-28T01:29:24.016Z,99.90
2022-11-28T01:29:33.517Z,99.90
2022-11-28T01:29:42.909Z,99.90
2022-11-28T01:29:52.320Z,99.90
2022-11-28T01:30:11.125Z,99.90
2022-11-28T01:30:20.546Z,99.90
2022-11-28T01:30:29.970Z,99.90
2022-11-28T01:30:39.405Z,99.90
2022-11-28T01:30:48.806Z,99.90
2022-11-28T01:30:58.226Z,99.90
2022-11-28T01:31:07.742Z,99.90
2022-11-28T01:31:17.181Z,99.90
2022-11-28T01:31:26.674Z,99.90
2022-11-28T01:31:36.043Z,99.90
2022-11-28T01:31:45.485Z,99.90
2022-11-28T01:31:54.845Z,99.90
2022-11-28T01:32:04.202Z,99.90
2022-11-28T01:32:13.625Z,99.90
2022-11-28T01:32:23.049Z,99.90
2022-11-28T01:32:32.492Z,99.90
2022-11-28T01:32:41.915Z,99.90
2022-11-28T01:33:00.818Z,99.90
2022-11-28T01:33:10.230Z,99.90
2022-11-28T01:33:19.722Z,99.90
2022-11-28T01:33:29.156Z,99.90
2022-11-28T01:33:38.555Z,99.90
2022-11-28T01:33:48.012Z,99.90
2022-11-28T01:33:57.426Z,99.90
2022-11-28T01:34:06.853Z,99.90
2022-11-28T01:34:16.258Z,99.90
2022-11-28T01:34:25.691Z,99.90
2022-11-28T01:34:35.114Z,99.90
2022-11-28T01:34:44.807Z,99.90
2022-11-28T01:34:53.953Z,99.90
2022-11-28T01:35:03.410Z,99.90
2022-11-28T01:35:12.897Z,99.90
2022-11-28T01:35:22.399Z,99.90
2022-11-28T01:35:41.246Z,99.90
2022-11-28T01:35:50.648Z,99.90
2022-11-28T01:36:00.146Z,99.90
2022-11-28T01:36:09.556Z,99.90
2022-11-28T01:36:19.015Z,99.90
2022-11-28T01:36:28.480Z,99.90
2022-11-28T01:36:37.945Z,99.90
2022-11-28T01:36:47.336Z,99.90
2022-11-28T01:36:56.749Z,99.90
2022-11-28T01:37:06.160Z,99.90
2022-11-28T01:37:15.572Z,99.90
2022-11-28T01:37:25.079Z,99.90
2022-11-28T01:37:34.479Z,99.90
2022-11-28T01:37:43.889Z,99.90
2022-11-28T01:37:53.309Z,99.90
2022-11-28T01:38:02.718Z,99.90
2022-11-28T01:38:12.203Z,99.90
2022-11-28T01:38:31.073Z,99.90
2022-11-28T01:38:40.505Z,99.90
2022-11-28T01:38:50.093Z,99.90
2022-11-28T01:38:59.370Z,99.90
2022-11-28T01:39:08.794Z,99.90
2022-11-28T01:39:18.251Z,99.90
2022-11-28T01:39:27.679Z,99.90
2022-11-28T01:39:37.100Z,99.90
2022-11-28T01:39:46.542Z,99.90
2022-11-28T01:39:55.943Z,99.90
2022-11-28T01:40:05.363Z,99.90
2022-11-28T01:40:14.776Z,99.90
2022-11-28T01:40:24.194Z,99.90
2022-11-28T01:40:33.621Z,99.90
2022-11-28T01:40:43.041Z,99.90
2022-11-28T01:40:52.492Z,99.90
2022-11-28T01:41:11.318Z,99.90
2022-11-28T01:41:20.723Z,99.90
2022-11-28T01:41:30.141Z,99.90
2022-11-28T01:41:39.578Z,99.90
2022-11-28T01:41:48.982Z,99.90
2022-11-28T01:41:58.409Z,99.90
2022-11-28T01:42:07.825Z,99.90
2022-11-28T01:42:17.249Z,99.90
2022-11-28T01:42:26.667Z,99.90
2022-11-28T01:42:36.250Z,99.90
2022-11-28T01:42:45.668Z,99.90
2022-11-28T01:42:55.093Z,99.90
2022-11-28T01:43:04.506Z,99.90
2022-11-28T01:43:13.910Z,99.90
2022-11-28T01:43:23.367Z,99.90
2022-11-28T01:43:32.783Z,99.90
2022-11-28T01:43:42.178Z,99.90
2022-11-28T01:44:01.134Z,99.90
2022-11-28T01:44:10.563Z,99.90
2022-11-28T01:44:19.984Z,99.90
2022-11-28T01:44:29.398Z,99.90
2022-11-28T01:44:38.826Z,99.90
2022-11-28T01:44:48.231Z,99.90
2022-11-28T01:44:57.661Z,99.90
2022-11-28T01:45:07.054Z,99.90
2022-11-28T01:45:16.451Z,99.90
2022-11-28T01:45:25.854Z,99.90
2022-11-28T01:45:35.247Z,99.90
2022-11-28T01:45:44.647Z,99.90
2022-11-28T01:45:54.086Z,99.90
2022-11-28T01:46:03.513Z,99.90
2022-11-28T01:46:12.954Z,99.90
2022-11-28T01:46:22.400Z,99.90
2022-11-28T01:46:41.323Z,99.90
2022-11-28T01:46:50.761Z,99.90
2022-11-28T01:47:00.154Z,99.90
2022-11-28T01:47:09.529Z,99.70
2022-11-28T01:47:18.885Z,99.60
2022-11-28T01:47:28.309Z,99.30
2022-11-28T01:47:37.713Z,99.20
2022-11-28T01:47:47.135Z,98.90
2022-11-28T01:47:56.547Z,98.70
2022-11-28T01:48:05.925Z,98.50
2022-11-28T01:48:15.336Z,98.40
2022-11-28T01:48:24.818Z,98.20
2022-11-28T01:48:34.232Z,98.10
2022-11-28T01:48:43.636Z,98.10
2022-11-28T01:48:53.029Z,97.90
2022-11-28T01:49:02.454Z,97.90
2022-11-28T01:49:21.395Z,97.70
2022-11-28T01:49:30.824Z,97.50
2022-11-28T01:49:40.268Z,97.30
2022-11-28T01:49:49.670Z,97.10
2022-11-28T01:49:59.084Z,97.00
2022-11-28T01:50:08.498Z,96.60
2022-11-28T01:50:17.882Z,96.40
2022-11-28T01:50:27.298Z,96.20
2022-11-28T01:50:36.687Z,96.00
2022-11-28T01:50:46.073Z,95.90
2022-11-28T01:50:55.487Z,95.80
2022-11-28T01:51:04.921Z,95.70
2022-11-28T01:51:14.332Z,95.70
2022-11-28T01:51:23.816Z,95.80
2022-11-28T01:51:33.279Z,95.70
2022-11-28T01:51:42.734Z,95.60
2022-11-28T01:51:52.129Z,95.50
2022-11-28T01:52:10.922Z,95.40
2022-11-28T01:52:20.344Z,95.20
2022-11-28T01:52:29.740Z,95.20
2022-11-28T01:52:39.167Z,95.00
2022-11-28T01:52:48.588Z,94.90
2022-11-28T01:52:57.972Z,94.70
2022-11-28T01:53:07.383Z,94.50
2022-11-28T01:53:16.778Z,94.20
2022-11-28T01:53:26.188Z,94.10
2022-11-28T01:53:35.583Z,93.90
2022-11-28T01:53:44.975Z,93.70
2022-11-28T01:53:54.514Z,93.70
2022-11-28T01:54:03.807Z,93.50
2022-11-28T01:54:13.208Z,93.50
2022-11-28T01:54:22.627Z,93.60
2022-11-28T01:54:32.029Z,93.60
2022-11-28T01:54:50.961Z,93.40
2022-11-28T01:55:00.370Z,93.30
2022-11-28T01:55:09.754Z,93.10
2022-11-28T01:55:19.147Z,93.10
2022-11-28T01:55:28.563Z,93.10
2022-11-28T01:55:37.960Z,93.00
2022-11-28T01:55:47.382Z,92.90
2022-11-28T01:55:56.803Z,92.90
2022-11-28T01:56:06.231Z,92.80
2022-11-28T01:56:15.636Z,92.70
2022-11-28T01:56:25.053Z,92.70
2022-11-28T01:56:34.456Z,92.70
2022-11-28T01:56:43.861Z,92.80
2022-11-28T01:56:53.259Z,92.80
2022-11-28T01:57:02.668Z,92.80
2022-11-28T01:57:12.089Z,92.70
2022-11-28T01:57:30.932Z,92.70
2022-11-28T01:57:40.326Z,92.60
2022-11-28T01:57:49.733Z,92.50
2022-11-28T01:57:59.140Z,92.40
2022-11-28T01:58:08.545Z,92.30
2022-11-28T01:58:17.934Z,92.20
2022-11-28T01:58:27.338Z,92.20
2022-11-28T01:58:36.763Z,92.20
2022-11-28T01:58:46.138Z,92.20
2022-11-28T01:58:55.566Z,92.20
2022-11-28T01:59:04.981Z,92.10
2022-11-28T01:59:14.388Z,92.10
2022-11-28T01:59:23.795Z,92.00
2022-11-28T01:59:33.199Z,92.10
2022-11-28T01:59:42.617Z,92.10
2022-11-28T01:59:52.013Z,92.10
2022-11-28T02:00:10.829Z,92.00
2022-11-28T02:00:20.259Z,91.90
2022-11-28T02:00:29.665Z,91.80
2022-11-28T02:00:39.180Z,91.80
2022-11-28T02:00:48.526Z,91.70
2022-11-28T02:00:57.927Z,91.70
2022-11-28T02:01:07.361Z,91.70
2022-11-28T02:01:16.789Z,91.70
2022-11-28T02:01:26.078Z,91.60
2022-11-28T02:01:35.439Z,91.60
2022-11-28T02:01:44.939Z,91.70
2022-11-28T02:01:54.288Z,91.70
2022-11-28T02:02:03.771Z,91.50
2022-11-28T02:02:13.227Z,91.50
2022-11-28T02:02:22.652Z,91.50
2022-11-28T02:02:32.028Z,91.50
2022-11-28T02:02:50.796Z,91.50
2022-11-28T02:03:00.183Z,91.40
2022-11-28T02:03:09.567Z,91.40
2022-11-28T02:03:18.962Z,91.40
2022-11-28T02:03:28.379Z,91.40
2022-11-28T02:03:37.791Z,91.30
2022-11-28T02:03:47.201Z,91.30
2022-11-28T02:03:56.603Z,91.30
2022-11-28T02:04:06.025Z,91.20
2022-11-28T02:04:15.445Z,91.20
2022-11-28T02:04:24.898Z,91.10
2022-11-28T02:04:34.296Z,91.10
2022-11-28T02:04:44.085Z,91.00
2022-11-28T02:04:53.142Z,91.00
2022-11-28T02:05:02.530Z,91.00
2022-11-28T02:05:11.911Z,91.10
2022-11-28T02:05:30.751Z,91.20
2022-11-28T02:05:40.162Z,91.30
2022-11-28T02:05:49.565Z,91.20
2022-11-28T02:05:58.972Z,91.10
2022-11-28T02:06:08.371Z,91.10
2022-11-28T02:06:17.780Z,91.00
2022-11-28T02:06:27.201Z,90.90
2022-11-28T02:06:36.602Z,91.00
2022-11-28T02:06:46.046Z,90.90
2022-11-28T02:06:55.468Z,91.00
2022-11-28T02:07:04.865Z,91.00
2022-11-28T02:07:14.365Z,90.90
2022-11-28T02:07:23.738Z,91.00
2022-11-28T02:07:33.118Z,91.00
2022-11-28T02:07:42.578Z,91.00
2022-11-28T02:08:01.452Z,91.00
2022-11-28T02:08:10.798Z,90.90
2022-11-28T02:08:20.215Z,90.90
2022-11-28T02:08:29.652Z,90.80
2022-11-28T02:08:39.029Z,90.90
2022-11-28T02:08:48.423Z,90.90